Time;durP1;ratioP1;P1;durP2;ratioP2;P2;SDS_P1;SDS_P2;PMS_P1;PMS_P2;Temp;Humidity;BMP_temperature;BMP_pressure;BME280_temperature;BME280_humidity;BME280_pressure;Samples;Min_cycle;Max_cycle;Signal;HPM_P1;HPM_P2
2021/09/25 00:00:50;;;;;;;11.60;4.00;;;;;;;;;;4945138;28;20303;-70
2021/09/25 00:03:16;;;;;;;7.10;3.00;;;;;;;;;;4945642;28;22486;-71
2021/09/25 00:05:42;;;;;;;12.03;4.27;;;;;;;;;;4940190;28;20202;-72
2021/09/25 00:08:07;;;;;;;10.90;4.40;;;;;;;;;;4936497;28;20267;-73
2021/09/25 00:10:34;;;;;;;8.93;3.60;;;;;;;;;;4942419;28;20447;-69
2021/09/25 00:12:59;;;;;;;12.30;4.20;;;;;;;;;;4950308;28;20183;-70
2021/09/25 00:15:25;;;;;;;15.27;4.80;;;;;;;;;;4948198;28;20473;-74
2021/09/25 00:17:50;;;;;;;7.00;3.83;;;;;;;;;;4946146;28;20191;-71
2021/09/25 00:20:16;;;;;;;11.30;4.03;;;;;;;;;;4948589;28;20215;-69
2021/09/25 00:22:42;;;;;;;9.97;3.77;;;;;;;;;;4948412;28;20191;-70
2021/09/25 00:25:08;;;;;;;10.47;4.50;;;;;;;;;;4947099;28;20516;-70
2021/09/25 00:27:33;;;;;;;9.77;4.03;;;;;;;;;;4946627;28;20186;-71
2021/09/25 00:29:58;;;;;;;11.47;5.87;;;;;;;;;;4947548;28;20187;-71
2021/09/25 00:32:26;;;;;;;7.07;4.13;;;;;;;;;;4947029;28;20656;-72
2021/09/25 00:34:51;;;;;;;11.73;5.07;;;;;;;;;;4947873;28;20210;-72
2021/09/25 00:37:17;;;;;;;12.77;6.27;;;;;;;;;;4944073;28;20447;-73
2021/09/25 00:39:42;;;;;;;9.47;4.30;;;;;;;;;;4947141;28;20206;-70
2021/09/25 00:42:08;;;;;;;16.50;5.43;;;;;;;;;;4948004;28;20198;-72
2021/09/25 00:44:33;;;;;;;10.33;4.97;;;;;;;;;;4949925;28;20255;-71
2021/09/25 00:46:58;;;;;;;10.00;4.90;;;;;;;;;;4947009;28;20191;-72
2021/09/25 00:49:25;;;;;;;21.20;5.70;;;;;;;;;;4949634;28;20274;-72
2021/09/25 00:51:50;;;;;;;16.63;5.83;;;;;;;;;;4951748;28;20186;-72
2021/09/25 00:54:17;;;;;;;15.57;6.00;;;;;;;;;;4942761;28;20458;-70
2021/09/25 00:56:44;;;;;;;9.33;4.90;;;;;;;;;;4948835;28;20189;-73
2021/09/25 00:59:09;;;;;;;13.63;5.00;;;;;;;;;;4940850;28;20442;-72
2021/09/25 01:01:35;;;;;;;15.80;6.10;;;;;;;;;;4944881;28;20470;-71
2021/09/25 01:04:00;;;;;;;17.37;6.37;;;;;;;;;;4952344;28;20443;-73
2021/09/25 01:06:25;;;;;;;14.97;4.87;;;;;;;;;;4947464;28;20340;-71
2021/09/25 01:08:51;;;;;;;11.70;5.47;;;;;;;;;;4949074;28;20175;-71
2021/09/25 01:11:16;;;;;;;14.07;6.00;;;;;;;;;;4947826;28;21216;-71
2021/09/25 01:13:41;;;;;;;8.00;5.90;;;;;;;;;;4943052;28;20214;-70
2021/09/25 01:16:07;;;;;;;15.20;5.73;;;;;;;;;;4936132;28;20189;-70
2021/09/25 01:18:32;;;;;;;11.00;5.47;;;;;;;;;;4941264;29;20190;-71
2021/09/25 01:21:07;;;;;;;14.40;6.33;;;;;;;;;;4944080;28;20225;-71
2021/09/25 01:23:32;;;;;;;11.70;5.93;;;;;;;;;;4947774;28;20667;-71
2021/09/25 01:25:58;;;;;;;10.27;5.27;;;;;;;;;;4947903;28;20442;-70
2021/09/25 01:28:23;;;;;;;16.70;6.40;;;;;;;;;;4942226;28;20182;-70
2021/09/25 01:30:49;;;;;;;22.03;7.27;;;;;;;;;;4943133;28;20438;-71
2021/09/25 01:33:14;;;;;;;11.53;5.10;;;;;;;;;;4946242;29;20179;-71
2021/09/25 01:35:39;;;;;;;15.90;6.10;;;;;;;;;;4944917;28;20622;-71
2021/09/25 01:38:04;;;;;;;11.27;5.43;;;;;;;;;;4946045;28;20198;-73
2021/09/25 01:40:30;;;;;;;13.73;6.17;;;;;;;;;;4951263;29;20570;-71
2021/09/25 01:42:56;;;;;;;12.40;5.80;;;;;;;;;;4945466;28;20186;-72
2021/09/25 01:45:21;;;;;;;13.00;5.57;;;;;;;;;;4949131;28;20595;-71
2021/09/25 01:47:46;;;;;;;18.10;7.10;;;;;;;;;;4941024;28;20332;-71
2021/09/25 01:50:13;;;;;;;12.30;5.10;;;;;;;;;;4950037;29;20182;-70
2021/09/25 01:52:38;;;;;;;11.67;5.77;;;;;;;;;;4947448;28;20315;-71
2021/09/25 01:55:04;;;;;;;10.43;5.20;;;;;;;;;;4946243;28;20938;-70
2021/09/25 01:57:29;;;;;;;13.63;4.90;;;;;;;;;;4948458;29;20183;-71
2021/09/25 01:59:54;;;;;;;11.60;4.73;;;;;;;;;;4944950;28;20522;-71
2021/09/25 02:02:20;;;;;;;13.07;6.00;;;;;;;;;;4962196;28;20195;-71
2021/09/25 02:04:48;;;;;;;16.20;5.77;;;;;;;;;;4947059;28;20234;-72
2021/09/25 02:07:15;;;;;;;13.07;5.30;;;;;;;;;;4948031;28;20179;-71
2021/09/25 02:09:40;;;;;;;10.20;5.20;;;;;;;;;;4946383;28;20521;-72
2021/09/25 02:12:06;;;;;;;15.97;5.67;;;;;;;;;;4949606;28;20478;-70
2021/09/25 02:14:31;;;;;;;15.33;5.73;;;;;;;;;;4951547;28;20574;-72
2021/09/25 02:16:57;;;;;;;14.13;6.90;;;;;;;;;;4950206;28;20426;-72
2021/09/25 02:19:22;;;;;;;16.47;6.07;;;;;;;;;;4951218;29;20179;-71
2021/09/25 02:21:48;;;;;;;13.67;5.87;;;;;;;;;;4949967;28;20179;-72
2021/09/25 02:24:13;;;;;;;17.13;5.80;;;;;;;;;;4949260;28;20218;-70
2021/09/25 02:26:38;;;;;;;13.90;5.60;;;;;;;;;;4949040;28;20906;-71
2021/09/25 02:29:04;;;;;;;13.63;6.63;;;;;;;;;;4945117;28;20190;-71
2021/09/25 02:31:29;;;;;;;20.67;7.27;;;;;;;;;;4953512;28;20187;-71
2021/09/25 02:33:55;;;;;;;11.13;6.40;;;;;;;;;;4950292;28;20857;-72
2021/09/25 02:36:20;;;;;;;13.50;6.90;;;;;;;;;;4949866;28;20187;-71
2021/09/25 02:38:45;;;;;;;11.50;6.37;;;;;;;;;;4947824;28;20186;-72
2021/09/25 02:41:10;;;;;;;13.33;6.60;;;;;;;;;;4949057;29;20249;-73
2021/09/25 02:43:36;;;;;;;16.40;6.63;;;;;;;;;;4945915;28;20180;-72
2021/09/25 02:46:01;;;;;;;14.37;7.53;;;;;;;;;;4948282;28;20573;-72
2021/09/25 02:48:26;;;;;;;11.03;7.03;;;;;;;;;;4950377;29;20175;-71
2021/09/25 02:50:52;;;;;;;14.33;7.50;;;;;;;;;;4948495;28;20254;-71
2021/09/25 02:53:17;;;;;;;12.20;7.50;;;;;;;;;;4945719;28;20194;-71
2021/09/25 02:55:42;;;;;;;16.73;6.73;;;;;;;;;;4949672;28;20203;-72
2021/09/25 02:58:08;;;;;;;12.33;6.63;;;;;;;;;;4952126;28;20183;-72
2021/09/25 03:00:33;;;;;;;12.90;6.43;;;;;;;;;;4947973;28;20762;-72
2021/09/25 03:02:59;;;;;;;10.87;6.07;;;;;;;;;;4948047;28;20190;-72
2021/09/25 03:05:24;;;;;;;12.30;6.23;;;;;;;;;;4948687;28;20569;-72
2021/09/25 03:07:49;;;;;;;15.80;7.37;;;;;;;;;;4946323;28;20699;-72
2021/09/25 03:10:15;;;;;;;12.57;7.33;;;;;;;;;;4951262;28;20179;-72
2021/09/25 03:12:40;;;;;;;16.93;7.67;;;;;;;;;;4950106;28;20270;-72
2021/09/25 03:15:06;;;;;;;10.83;6.77;;;;;;;;;;4947106;28;20290;-72
2021/09/25 03:17:32;;;;;;;14.53;7.40;;;;;;;;;;4946541;28;20265;-74
2021/09/25 03:19:57;;;;;;;13.03;7.00;;;;;;;;;;4946967;28;20557;-71
2021/09/25 03:22:22;;;;;;;11.80;7.13;;;;;;;;;;4945708;28;20219;-71
2021/09/25 03:24:48;;;;;;;12.47;6.40;;;;;;;;;;4943547;28;20601;-72
2021/09/25 03:27:13;;;;;;;11.50;7.13;;;;;;;;;;4947395;28;20179;-71
2021/09/25 03:29:38;;;;;;;11.37;7.57;;;;;;;;;;4950069;28;20179;-72
2021/09/25 03:32:04;;;;;;;14.50;8.20;;;;;;;;;;4945878;29;20202;-71
2021/09/25 03:34:29;;;;;;;9.63;6.80;;;;;;;;;;4947601;28;20203;-73
2021/09/25 03:36:55;;;;;;;11.97;7.70;;;;;;;;;;4947106;28;20186;-71
2021/09/25 03:39:20;;;;;;;14.27;6.67;;;;;;;;;;4943239;28;20242;-71
2021/09/25 03:41:45;;;;;;;17.17;7.30;;;;;;;;;;4950607;29;20183;-72
2021/09/25 03:44:10;;;;;;;15.20;7.23;;;;;;;;;;4943213;28;20224;-71
2021/09/25 03:46:37;;;;;;;15.93;7.33;;;;;;;;;;4945505;28;20187;-72
2021/09/25 03:49:02;;;;;;;13.77;7.03;;;;;;;;;;4944132;28;20537;-72
2021/09/25 03:51:30;;;;;;;17.13;8.20;;;;;;;;;;4948645;28;20453;-72
2021/09/25 03:53:55;;;;;;;24.67;6.83;;;;;;;;;;4948282;28;20209;-73
2021/09/25 03:56:21;;;;;;;13.63;6.93;;;;;;;;;;4946669;28;20812;-72
2021/09/25 03:58:46;;;;;;;19.97;7.53;;;;;;;;;;4945346;28;20183;-72
2021/09/25 04:01:12;;;;;;;10.80;7.03;;;;;;;;;;4946889;28;20331;-71
2021/09/25 04:03:38;;;;;;;14.57;7.50;;;;;;;;;;4948190;28;20254;-71
2021/09/25 04:06:03;;;;;;;13.13;6.60;;;;;;;;;;4947422;28;21013;-71
2021/09/25 04:08:29;;;;;;;17.33;6.83;;;;;;;;;;4945499;28;20207;-71
2021/09/25 04:10:54;;;;;;;12.87;7.07;;;;;;;;;;4948335;28;20254;-72
2021/09/25 04:13:20;;;;;;;12.63;6.53;;;;;;;;;;4944833;28;20195;-72
2021/09/25 04:15:45;;;;;;;12.80;7.03;;;;;;;;;;4948425;28;20179;-71
2021/09/25 04:18:14;;;;;;;10.83;5.77;;;;;;;;;;4947352;28;20273;-71
2021/09/25 04:20:39;;;;;;;12.97;5.47;;;;;;;;;;4945248;28;20953;-71
2021/09/25 04:23:05;;;;;;;16.47;7.00;;;;;;;;;;4945146;28;20443;-73
2021/09/25 04:25:34;;;;;;;15.27;5.50;;;;;;;;;;4948854;28;20354;-72
2021/09/25 04:28:05;;;;;;;12.13;6.30;;;;;;;;;;4945573;28;20552;-71
2021/09/25 04:30:36;;;;;;;13.30;5.57;;;;;;;;;;4941233;28;20443;-72
2021/09/25 04:33:02;;;;;;;15.37;6.13;;;;;;;;;;4945520;29;20465;-72
2021/09/25 04:35:27;;;;;;;8.57;5.17;;;;;;;;;;4948017;28;21224;-73
2021/09/25 04:37:53;;;;;;;14.27;5.40;;;;;;;;;;4949051;28;20306;-72
2021/09/25 04:40:18;;;;;;;12.97;6.27;;;;;;;;;;4951452;28;20200;-72
2021/09/25 04:42:44;;;;;;;16.20;5.83;;;;;;;;;;4949207;28;20194;-73
2021/09/25 04:45:12;;;;;;;12.83;5.70;;;;;;;;;;4950409;28;20218;-71
2021/09/25 04:47:38;;;;;;;11.13;5.53;;;;;;;;;;4947990;28;20179;-72
2021/09/25 04:50:04;;;;;;;16.27;6.23;;;;;;;;;;4947935;28;20438;-72
2021/09/25 04:52:29;;;;;;;9.37;5.47;;;;;;;;;;4947986;28;20451;-71
2021/09/25 04:54:54;;;;;;;16.87;5.10;;;;;;;;;;4949120;28;20617;-72
2021/09/25 04:57:20;;;;;;;13.47;5.30;;;;;;;;;;4945128;28;20289;-71
2021/09/25 04:59:45;;;;;;;16.10;6.33;;;;;;;;;;4945642;28;20218;-72
2021/09/25 05:02:10;;;;;;;14.70;5.30;;;;;;;;;;4948882;28;20231;-71
2021/09/25 05:04:36;;;;;;;16.50;5.97;;;;;;;;;;4948922;28;20238;-72
2021/09/25 05:07:01;;;;;;;13.00;5.70;;;;;;;;;;4948113;28;20542;-72
2021/09/25 05:09:26;;;;;;;10.63;5.83;;;;;;;;;;4947519;28;20179;-73
2021/09/25 05:11:52;;;;;;;9.27;5.43;;;;;;;;;;4947178;28;20242;-73
2021/09/25 05:14:17;;;;;;;10.90;4.70;;;;;;;;;;4948714;28;20258;-72
2021/09/25 05:16:42;;;;;;;9.90;5.80;;;;;;;;;;4949157;28;20183;-71
2021/09/25 05:19:07;;;;;;;15.80;6.50;;;;;;;;;;4945926;28;20193;-72
2021/09/25 05:21:33;;;;;;;16.00;6.23;;;;;;;;;;4948331;28;20211;-73
2021/09/25 05:23:58;;;;;;;12.23;5.50;;;;;;;;;;4947137;28;20666;-72
2021/09/25 05:26:23;;;;;;;13.67;5.87;;;;;;;;;;4947941;28;20211;-72
2021/09/25 05:28:49;;;;;;;10.47;5.03;;;;;;;;;;4945136;28;20190;-73
2021/09/25 05:31:14;;;;;;;12.83;6.20;;;;;;;;;;4946062;28;20183;-72
2021/09/25 05:33:40;;;;;;;14.20;5.07;;;;;;;;;;4943513;28;20301;-72
2021/09/25 05:36:05;;;;;;;18.17;6.10;;;;;;;;;;4946240;28;20616;-70
2021/09/25 05:38:30;;;;;;;15.73;5.10;;;;;;;;;;4947728;28;20652;-73
2021/09/25 05:40:56;;;;;;;12.17;6.27;;;;;;;;;;4951172;28;20305;-72
2021/09/25 05:43:21;;;;;;;17.63;6.90;;;;;;;;;;4946638;28;20234;-71
2021/09/25 05:45:46;;;;;;;13.70;6.20;;;;;;;;;;4947960;29;20190;-72
2021/09/25 05:48:11;;;;;;;16.80;6.40;;;;;;;;;;4947910;28;20182;-71
2021/09/25 05:50:39;;;;;;;17.50;6.90;;;;;;;;;;4950329;28;20477;-72
2021/09/25 05:53:05;;;;;;;14.60;6.07;;;;;;;;;;4947180;28;20183;-73
2021/09/25 05:55:30;;;;;;;15.70;5.80;;;;;;;;;;4948630;28;20815;-72
2021/09/25 05:58:01;;;;;;;16.17;6.57;;;;;;;;;;4949561;28;20191;-74
2021/09/25 06:00:26;;;;;;;9.50;4.97;;;;;;;;;;4944399;28;20211;-71
2021/09/25 06:02:51;;;;;;;16.57;6.40;;;;;;;;;;4943474;28;20489;-72
2021/09/25 06:05:17;;;;;;;16.43;6.13;;;;;;;;;;4943178;28;20199;-72
2021/09/25 06:08:02;;;;;;;15.40;6.80;;;;;;;;;;4944879;28;20267;-72
2021/09/25 06:10:40;;;;;;;11.43;5.97;;;;;;;;;;4951490;29;20271;-72
2021/09/25 06:13:06;;;;;;;15.80;6.13;;;;;;;;;;4952703;28;20422;-71
2021/09/25 06:15:32;;;;;;;9.90;5.33;;;;;;;;;;4955020;28;20465;-72
2021/09/25 06:18:00;;;;;;;14.90;6.73;;;;;;;;;;4953588;28;20430;-71
2021/09/25 06:20:26;;;;;;;10.57;5.90;;;;;;;;;;4953094;29;20211;-72
2021/09/25 06:22:51;;;;;;;14.23;5.70;;;;;;;;;;4953946;28;20493;-72
2021/09/25 06:25:16;;;;;;;11.17;6.00;;;;;;;;;;4952959;28;20267;-71
2021/09/25 06:27:41;;;;;;;13.70;6.20;;;;;;;;;;4954933;28;20202;-71
2021/09/25 06:30:07;;;;;;;9.70;5.80;;;;;;;;;;4951633;28;20187;-72
2021/09/25 06:32:32;;;;;;;10.10;5.20;;;;;;;;;;4952608;28;20571;-76
2021/09/25 06:34:58;;;;;;;15.87;6.33;;;;;;;;;;4953739;28;20231;-73
2021/09/25 06:37:23;;;;;;;11.70;5.67;;;;;;;;;;4952256;28;20714;-72
2021/09/25 06:39:51;;;;;;;13.57;6.40;;;;;;;;;;4948353;28;20230;-73
2021/09/25 06:42:16;;;;;;;11.60;5.70;;;;;;;;;;4945372;28;20557;-73
2021/09/25 06:44:42;;;;;;;13.50;6.23;;;;;;;;;;4949420;28;20485;-73
2021/09/25 06:47:07;;;;;;;11.70;5.70;;;;;;;;;;4949236;28;20218;-72
2021/09/25 06:49:32;;;;;;;15.43;7.10;;;;;;;;;;4949002;28;20813;-72
2021/09/25 06:51:58;;;;;;;15.53;6.60;;;;;;;;;;4947506;28;20241;-73
2021/09/25 06:54:23;;;;;;;15.53;6.87;;;;;;;;;;4945889;28;20217;-71
2021/09/25 06:56:48;;;;;;;13.93;6.90;;;;;;;;;;4941171;28;20187;-72
2021/09/25 06:59:14;;;;;;;13.40;5.53;;;;;;;;;;4938070;28;20258;-74
2021/09/25 07:01:39;;;;;;;14.70;7.03;;;;;;;;;;4945149;28;20225;-73
2021/09/25 07:04:04;;;;;;;14.97;5.10;;;;;;;;;;4950569;28;20710;-72
2021/09/25 07:06:29;;;;;;;12.93;5.80;;;;;;;;;;4946550;28;20266;-71
2021/09/25 07:08:55;;;;;;;19.73;6.47;;;;;;;;;;4949323;28;20191;-72
2021/09/25 07:11:20;;;;;;;16.60;5.73;;;;;;;;;;4944308;28;20270;-72
2021/09/25 07:13:45;;;;;;;12.43;6.50;;;;;;;;;;4952668;28;20222;-73
2021/09/25 07:16:11;;;;;;;15.53;6.03;;;;;;;;;;4947466;28;20187;-73
2021/09/25 07:18:37;;;;;;;16.20;5.60;;;;;;;;;;4952210;28;20266;-73
2021/09/25 07:21:03;;;;;;;14.87;6.10;;;;;;;;;;4947446;28;20211;-71
2021/09/25 07:23:28;;;;;;;14.07;6.23;;;;;;;;;;4946937;28;20449;-73
2021/09/25 07:25:53;;;;;;;15.20;6.57;;;;;;;;;;4944318;28;20696;-74
2021/09/25 07:28:19;;;;;;;14.17;6.80;;;;;;;;;;4948396;28;20735;-72
2021/09/25 07:30:48;;;;;;;17.77;7.27;;;;;;;;;;4948853;28;20187;-73
2021/09/25 07:33:13;;;;;;;10.70;5.13;;;;;;;;;;4947850;28;20226;-71
2021/09/25 07:35:39;;;;;;;10.80;5.77;;;;;;;;;;4937672;28;20467;-73
2021/09/25 07:38:05;;;;;;;16.10;6.10;;;;;;;;;;4963773;28;20282;-74
2021/09/25 07:40:31;;;;;;;14.17;6.90;;;;;;;;;;4945649;28;20554;-72
2021/09/25 07:42:56;;;;;;;11.03;6.47;;;;;;;;;;4943740;28;20441;-72
2021/09/25 07:45:22;;;;;;;11.93;6.73;;;;;;;;;;4944776;28;20565;-72
2021/09/25 07:47:47;;;;;;;13.47;7.77;;;;;;;;;;4939867;28;20175;-74
2021/09/25 07:50:12;;;;;;;14.33;6.07;;;;;;;;;;4946641;28;20198;-72
2021/09/25 07:52:41;;;;;;;12.50;6.40;;;;;;;;;;4947745;28;20191;-71
2021/09/25 07:55:07;;;;;;;15.40;7.30;;;;;;;;;;4946107;28;20219;-73
2021/09/25 07:57:32;;;;;;;12.03;6.43;;;;;;;;;;4944512;28;20441;-73
2021/09/25 07:59:57;;;;;;;19.20;6.07;;;;;;;;;;4947686;28;21169;-73
2021/09/25 08:02:23;;;;;;;12.40;6.23;;;;;;;;;;4946985;28;20289;-72
2021/09/25 08:04:48;;;;;;;11.10;5.70;;;;;;;;;;4940211;28;20648;-71
2021/09/25 08:07:13;;;;;;;11.33;5.87;;;;;;;;;;4942883;28;20218;-71
2021/09/25 08:09:38;;;;;;;16.27;6.93;;;;;;;;;;4949447;28;20191;-73
2021/09/25 08:12:05;;;;;;;13.60;6.60;;;;;;;;;;4940004;28;20750;-72
2021/09/25 08:14:32;;;;;;;14.00;7.07;;;;;;;;;;4946037;28;20382;-71
2021/09/25 08:16:58;;;;;;;14.57;6.60;;;;;;;;;;4941225;28;20909;-72
2021/09/25 08:19:23;;;;;;;13.17;6.60;;;;;;;;;;4943919;28;20457;-73
2021/09/25 08:21:48;;;;;;;13.77;6.90;;;;;;;;;;4945348;28;20227;-71
2021/09/25 08:24:13;;;;;;;12.50;6.20;;;;;;;;;;4942805;28;20209;-71
2021/09/25 08:26:39;;;;;;;14.73;6.57;;;;;;;;;;4940895;28;20979;-71
2021/09/25 08:29:04;;;;;;;15.63;6.97;;;;;;;;;;4940366;28;20651;-70
2021/09/25 08:31:30;;;;;;;13.60;6.73;;;;;;;;;;4946815;28;20600;-72
2021/09/25 08:33:55;;;;;;;14.20;7.57;;;;;;;;;;4946352;28;20639;-71
2021/09/25 08:36:20;;;;;;;15.73;7.00;;;;;;;;;;4943506;28;20624;-72
2021/09/25 08:38:46;;;;;;;13.83;6.03;;;;;;;;;;4947053;28;20191;-73
2021/09/25 08:41:11;;;;;;;19.53;8.03;;;;;;;;;;4941900;28;20239;-70
2021/09/25 08:43:36;;;;;;;14.53;7.03;;;;;;;;;;4944208;28;20188;-70
2021/09/25 08:46:03;;;;;;;10.23;6.30;;;;;;;;;;4942254;28;20262;-71
2021/09/25 08:48:29;;;;;;;17.20;7.83;;;;;;;;;;4943008;28;20184;-72
2021/09/25 08:51:00;;;;;;;13.80;6.20;;;;;;;;;;4940469;28;20538;-72
2021/09/25 08:53:25;;;;;;;10.93;6.03;;;;;;;;;;4939871;28;20505;-71
2021/09/25 08:55:51;;;;;;;13.50;6.73;;;;;;;;;;4938720;28;21207;-70
2021/09/25 08:58:16;;;;;;;14.20;6.20;;;;;;;;;;4945260;28;20194;-71
2021/09/25 09:00:43;;;;;;;11.40;5.93;;;;;;;;;;4949443;28;20242;-71
2021/09/25 09:03:19;;;;;;;12.77;6.67;;;;;;;;;;4948357;28;20444;-71
2021/09/25 09:05:44;;;;;;;11.40;5.50;;;;;;;;;;4973665;23;20521;-70
2021/09/25 09:08:10;;;;;;;11.23;5.50;;;;;;;;;;4969641;28;20492;-70
2021/09/25 09:10:36;;;;;;;10.20;5.53;;;;;;;;;;4969573;28;20317;-70
2021/09/25 09:13:02;;;;;;;10.40;4.43;;;;;;;;;;4967990;28;20174;-70
2021/09/25 09:15:34;;;;;;;9.90;5.40;;;;;;;;;;4953195;28;20438;-69
2021/09/25 09:18:01;;;;;;;8.70;4.77;;;;;;;;;;4950243;28;20447;-69
2021/09/25 09:20:27;;;;;;;15.87;5.30;;;;;;;;;;4949993;28;20461;-70
2021/09/25 09:23:10;;;;;;;13.30;4.43;;;;;;;;;;4948653;28;20858;-70
2021/09/25 09:25:35;;;;;;;10.50;5.70;;;;;;;;;;4947122;28;20477;-71
2021/09/25 09:28:01;;;;;;;10.83;4.83;;;;;;;;;;4946836;28;20488;-70
2021/09/25 09:30:26;;;;;;;9.70;4.90;;;;;;;;;;4949315;29;20198;-71
2021/09/25 09:32:51;;;;;;;7.47;4.03;;;;;;;;;;4948204;29;20183;-73
2021/09/25 09:35:20;;;;;;;8.40;4.10;;;;;;;;;;4948466;28;20218;-72
2021/09/25 09:37:46;;;;;;;8.60;4.23;;;;;;;;;;4948387;29;20186;-71
2021/09/25 09:40:11;;;;;;;6.40;4.17;;;;;;;;;;4951926;28;20470;-71
2021/09/25 09:42:44;;;;;;;11.53;5.37;;;;;;;;;;4948824;28;20485;-72
2021/09/25 09:45:09;;;;;;;7.23;4.00;;;;;;;;;;4950642;28;20647;-71
2021/09/25 09:47:45;;;;;;;7.33;4.13;;;;;;;;;;4949138;28;20437;-70
2021/09/25 09:50:10;;;;;;;8.67;4.33;;;;;;;;;;4951605;28;20182;-70
2021/09/25 09:52:35;;;;;;;7.13;3.93;;;;;;;;;;4950538;28;20447;-70
2021/09/25 09:55:00;;;;;;;4.27;3.37;;;;;;;;;;4949514;28;20198;-70
2021/09/25 09:57:26;;;;;;;9.20;4.13;;;;;;;;;;4949475;28;20664;-69
2021/09/25 09:59:51;;;;;;;9.63;3.67;;;;;;;;;;4948320;28;20229;-69
2021/09/25 10:02:17;;;;;;;7.43;3.27;;;;;;;;;;4946282;28;20270;-69
2021/09/25 10:04:43;;;;;;;4.90;2.83;;;;;;;;;;4948024;28;20250;-69
2021/09/25 10:07:08;;;;;;;5.70;2.83;;;;;;;;;;4944031;28;20188;-69
2021/09/25 10:09:34;;;;;;;7.70;3.70;;;;;;;;;;4938906;28;20437;-70
2021/09/25 10:12:07;;;;;;;4.40;2.53;;;;;;;;;;4944791;28;20183;-70
2021/09/25 10:14:33;;;;;;;6.90;3.13;;;;;;;;;;4947403;28;20486;-70
2021/09/25 10:17:00;;;;;;;4.20;2.40;;;;;;;;;;4947339;28;20962;-70
2021/09/25 10:19:27;;;;;;;4.87;2.70;;;;;;;;;;4949300;29;20912;-70
2021/09/25 10:21:57;;;;;;;7.90;2.87;;;;;;;;;;4949613;28;21019;-70
2021/09/25 10:24:25;;;;;;;4.97;1.87;;;;;;;;;;4947406;28;20466;-71
2021/09/25 10:26:50;;;;;;;6.50;2.57;;;;;;;;;;4950626;29;20927;-70
2021/09/25 10:29:17;;;;;;;5.73;2.03;;;;;;;;;;4953120;28;20427;-70
2021/09/25 10:31:43;;;;;;;5.03;2.03;;;;;;;;;;4952610;29;20202;-70
2021/09/25 10:34:13;;;;;;;6.07;2.43;;;;;;;;;;4952163;28;20466;-70
2021/09/25 10:36:40;;;;;;;3.90;2.10;;;;;;;;;;4954144;28;20191;-70
2021/09/25 10:39:36;;;;;;;5.57;1.73;;;;;;;;;;4953200;28;20449;-70
2021/09/25 10:42:09;;;;;;;5.80;2.07;;;;;;;;;;4950335;28;20496;-70
2021/09/25 10:44:39;;;;;;;3.07;2.00;;;;;;;;;;4954163;28;20454;-70
2021/09/25 10:47:05;;;;;;;2.53;1.83;;;;;;;;;;4953112;29;20855;-70
2021/09/25 10:49:59;;;;;;;3.80;1.73;;;;;;;;;;4951935;29;20525;-70
2021/09/25 10:52:40;;;;;;;4.80;1.63;;;;;;;;;;4948964;28;20450;-70
2021/09/25 10:55:21;;;;;;;4.40;1.50;;;;;;;;;;4953057;28;20685;-70
2021/09/25 10:58:05;;;;;;;5.00;1.60;;;;;;;;;;4953456;28;20446;-70
2021/09/25 11:00:30;;;;;;;3.97;1.57;;;;;;;;;;4952088;29;20545;-70
2021/09/25 11:02:55;;;;;;;1.60;1.20;;;;;;;;;;4945432;28;20526;-70
2021/09/25 11:05:39;;;;;;;2.43;1.50;;;;;;;;;;4953460;28;20218;-71
2021/09/25 11:08:15;;;;;;;4.80;1.70;;;;;;;;;;4952350;29;20279;-71
2021/09/25 11:10:58;;;;;;;4.10;1.37;;;;;;;;;;4952873;28;20426;-71
2021/09/25 11:13:42;;;;;;;3.67;1.57;;;;;;;;;;4953237;28;20865;-71
2021/09/25 11:16:07;;;;;;;5.00;1.40;;;;;;;;;;4949983;28;20443;-71
2021/09/25 11:18:48;;;;;;;2.77;1.40;;;;;;;;;;4952570;28;20434;-70
2021/09/25 11:21:14;;;;;;;2.40;1.30;;;;;;;;;;4953031;29;20226;-71
2021/09/25 11:23:43;;;;;;;3.50;1.33;;;;;;;;;;4958687;28;20435;-71
2021/09/25 11:26:08;;;;;;;2.20;1.57;;;;;;;;;;4952175;29;20191;-70
2021/09/25 11:28:33;;;;;;;2.60;1.50;;;;;;;;;;4952330;28;20489;-70
2021/09/25 11:31:05;;;;;;;1.53;1.23;;;;;;;;;;4951216;28;20183;-68
2021/09/25 11:33:31;;;;;;;2.07;1.30;;;;;;;;;;4952284;28;20190;-68
2021/09/25 11:35:56;;;;;;;3.80;1.20;;;;;;;;;;4950977;28;20533;-69
2021/09/25 11:38:22;;;;;;;4.23;1.70;;;;;;;;;;4952091;29;20183;-69
2021/09/25 11:40:52;;;;;;;1.77;1.30;;;;;;;;;;4949318;29;20246;-69
2021/09/25 11:43:18;;;;;;;3.27;1.37;;;;;;;;;;4952022;29;20168;-69
2021/09/25 11:45:48;;;;;;;2.87;1.40;;;;;;;;;;4951906;28;20474;-70
2021/09/25 11:48:14;;;;;;;4.30;1.90;;;;;;;;;;4952310;29;20430;-69
2021/09/25 11:50:41;;;;;;;4.57;1.80;;;;;;;;;;4951732;29;20431;-69
2021/09/25 11:53:07;;;;;;;3.37;1.57;;;;;;;;;;4948472;28;20461;-69
2021/09/25 11:55:33;;;;;;;3.00;1.60;;;;;;;;;;4951785;28;20537;-69
2021/09/25 11:57:59;;;;;;;3.37;2.20;;;;;;;;;;4950062;28;20521;-69
2021/09/25 12:00:30;;;;;;;3.43;2.13;;;;;;;;;;4950835;28;20282;-69
2021/09/25 12:02:56;;;;;;;5.23;1.83;;;;;;;;;;4948272;28;20435;-71
2021/09/25 12:05:24;;;;;;;2.17;1.83;;;;;;;;;;4948862;28;20813;-71
2021/09/25 12:07:50;;;;;;;2.00;1.80;;;;;;;;;;4948225;28;20207;-71
2021/09/25 12:10:19;;;;;;;3.53;1.70;;;;;;;;;;4947082;28;21246;-72
2021/09/25 12:12:45;;;;;;;2.43;1.63;;;;;;;;;;4948656;28;20175;-69
2021/09/25 12:15:10;;;;;;;2.30;1.47;;;;;;;;;;4941122;28;20489;-69
2021/09/25 12:17:35;;;;;;;3.27;1.73;;;;;;;;;;4945007;29;21299;-70
2021/09/25 12:20:14;;;;;;;4.17;1.80;;;;;;;;;;4945051;28;20195;-70
2021/09/25 12:22:42;;;;;;;2.70;1.57;;;;;;;;;;4947242;28;20179;-70
2021/09/25 12:25:09;;;;;;;2.27;1.83;;;;;;;;;;4946386;28;20625;-70
2021/09/25 12:27:41;;;;;;;4.07;1.40;;;;;;;;;;4947187;28;20427;-70
2021/09/25 12:30:09;;;;;;;4.97;1.87;;;;;;;;;;4949500;29;20427;-70
2021/09/25 12:32:34;;;;;;;5.80;3.00;;;;;;;;;;4943088;28;20486;-72
2021/09/25 12:35:00;;;;;;;5.23;2.70;;;;;;;;;;4943291;28;20918;-71
2021/09/25 12:37:25;;;;;;;3.87;1.70;;;;;;;;;;4944134;28;20179;-71
2021/09/25 12:39:50;;;;;;;3.57;2.50;;;;;;;;;;4944971;28;20182;-71
2021/09/25 12:42:25;;;;;;;6.03;4.03;;;;;;;;;;4946540;28;20187;-71
2021/09/25 12:44:55;;;;;;;10.93;4.20;;;;;;;;;;4947219;28;20229;-71
2021/09/25 12:47:30;;;;;;;6.13;4.97;;;;;;;;;;4947287;28;21340;-71
2021/09/25 12:50:12;;;;;;;11.63;6.70;;;;;;;;;;4950414;29;20434;-71
2021/09/25 12:52:38;;;;;;;13.97;7.30;;;;;;;;;;4950898;28;20446;-71
2021/09/25 12:55:06;;;;;;;9.80;5.77;;;;;;;;;;4951394;28;20446;-71
2021/09/25 12:57:31;;;;;;;9.73;6.70;;;;;;;;;;4948902;28;20182;-71
2021/09/25 13:00:01;;;;;;;8.97;3.90;;;;;;;;;;4949554;28;20441;-71
2021/09/25 13:02:28;;;;;;;4.90;3.80;;;;;;;;;;4947159;28;20187;-71
2021/09/25 13:04:57;;;;;;;11.23;8.23;;;;;;;;;;4948143;28;20466;-71
2021/09/25 13:07:26;;;;;;;19.37;14.40;;;;;;;;;;4951182;29;20407;-71
2021/09/25 13:09:56;;;;;;;25.63;20.57;;;;;;;;;;4951292;29;20478;-71
2021/09/25 13:12:28;;;;;;;8.30;5.47;;;;;;;;;;4950763;28;20450;-71
2021/09/25 13:15:07;;;;;;;13.73;10.30;;;;;;;;;;4949838;28;20479;-71
2021/09/25 13:17:33;;;;;;;10.20;7.90;;;;;;;;;;4942217;28;21616;-71
2021/09/25 13:19:58;;;;;;;12.37;9.57;;;;;;;;;;4949867;28;20430;-71
2021/09/25 13:22:23;;;;;;;12.77;7.90;;;;;;;;;;4946967;29;20990;-71
2021/09/25 13:24:49;;;;;;;7.20;4.67;;;;;;;;;;4943912;28;20218;-71
2021/09/25 13:27:14;;;;;;;7.33;3.80;;;;;;;;;;4949690;28;20194;-71
2021/09/25 13:29:40;;;;;;;5.43;3.40;;;;;;;;;;4949908;28;20682;-71
2021/09/25 13:32:06;;;;;;;6.03;1.73;;;;;;;;;;4943979;28;20179;-71
2021/09/25 13:34:31;;;;;;;4.10;1.73;;;;;;;;;;4945958;28;20199;-71
2021/09/25 13:36:58;;;;;;;7.63;2.20;;;;;;;;;;4948080;29;20187;-70
2021/09/25 13:39:24;;;;;;;3.50;1.83;;;;;;;;;;4951349;28;20285;-70
2021/09/25 13:41:49;;;;;;;3.43;2.23;;;;;;;;;;4932708;28;20849;-70
2021/09/25 13:44:15;;;;;;;4.33;2.10;;;;;;;;;;4943223;28;20302;-70
2021/09/25 13:46:40;;;;;;;5.13;2.47;;;;;;;;;;4939169;28;20203;-70
2021/09/25 13:49:05;;;;;;;2.90;1.90;;;;;;;;;;4941237;28;20616;-70
2021/09/25 13:51:30;;;;;;;3.23;1.90;;;;;;;;;;4940207;28;20277;-71
2021/09/25 13:53:56;;;;;;;4.73;2.17;;;;;;;;;;4933487;28;20252;-69
2021/09/25 13:56:21;;;;;;;2.60;1.73;;;;;;;;;;4942161;28;20616;-70
2021/09/25 13:58:46;;;;;;;3.30;2.07;;;;;;;;;;4948112;28;20636;-71
2021/09/25 14:01:11;;;;;;;3.20;2.23;;;;;;;;;;4946945;28;20221;-70
2021/09/25 14:03:37;;;;;;;5.13;2.83;;;;;;;;;;4949599;28;20230;-70
2021/09/25 14:06:02;;;;;;;4.40;2.27;;;;;;;;;;4951589;28;20186;-71
2021/09/25 14:08:28;;;;;;;4.90;2.27;;;;;;;;;;4952209;28;20198;-70
2021/09/25 14:10:54;;;;;;;3.47;2.10;;;;;;;;;;4951604;28;20210;-70
2021/09/25 14:13:19;;;;;;;3.63;2.17;;;;;;;;;;4953586;28;20442;-70
2021/09/25 14:15:44;;;;;;;2.90;1.70;;;;;;;;;;4953472;28;20203;-71
2021/09/25 14:18:10;;;;;;;4.10;2.13;;;;;;;;;;4951653;29;20698;-71
2021/09/25 14:20:40;;;;;;;2.33;2.00;;;;;;;;;;4952028;28;20587;-70
2021/09/25 14:23:06;;;;;;;4.83;1.80;;;;;;;;;;4952256;28;20175;-70
2021/09/25 14:25:31;;;;;;;4.50;2.50;;;;;;;;;;4951588;28;20513;-70
2021/09/25 14:27:57;;;;;;;3.20;2.00;;;;;;;;;;4953270;28;20202;-70
2021/09/25 14:30:22;;;;;;;5.20;2.03;;;;;;;;;;4947977;29;20191;-71